Time;durP1;ratioP1;P1;durP2;ratioP2;P2;SDS_P1;SDS_P2;PMS_P1;PMS_P2;Temp;Humidity;BMP_temperature;BMP_pressure;BME280_temperature;BME280_humidity;BME280_pressure;Samples;Min_cycle;Max_cycle;Signal;HPM_P1;HPM_P2
2021/06/28 00:00:21;;;;;;;;;;;23.70;48.60;;;;;;1485991;40;19932;-72
2021/06/28 00:01:42;;;;;;;;;;;23.70;48.70;;;;;;1485469;39;19984;-72
2021/06/28 00:03:03;;;;;;;;;;;23.70;48.70;;;;;;1486666;39;20024;-71
2021/06/28 00:04:24;;;;;;;;;;;23.70;48.80;;;;;;1486206;39;19952;-71
2021/06/28 00:05:46;;;;;;;;;;;23.60;48.80;;;;;;1485500;40;19947;-72
2021/06/28 00:07:07;;;;;;;;;;;23.60;48.80;;;;;;1486954;39;19955;-72
2021/06/28 00:08:28;;;;;;;;;;;23.60;48.80;;;;;;1486030;39;19942;-72
2021/06/28 00:09:49;;;;;;;;;;;23.60;48.90;;;;;;1485370;40;19952;-71
2021/06/28 00:11:10;;;;;;;;;;;23.60;48.90;;;;;;1485959;40;19979;-72
2021/06/28 00:12:31;;;;;;;;;;;23.60;48.90;;;;;;1487004;40;19932;-72
2021/06/28 00:13:54;;;;;;;;;;;23.60;48.90;;;;;;1485974;40;19932;-71
2021/06/28 00:15:16;;;;;;;;;;;23.60;48.90;;;;;;1484271;40;19944;-72
2021/06/28 00:16:37;;;;;;;;;;;23.50;49.00;;;;;;1487059;40;19936;-71
2021/06/28 00:17:58;;;;;;;;;;;23.50;49.00;;;;;;1485877;40;19943;-72
2021/06/28 00:19:18;;;;;;;;;;;23.50;49.10;;;;;;1486755;40;19932;-71
2021/06/28 00:20:39;;;;;;;;;;;23.50;49.10;;;;;;1486556;39;19932;-72
2021/06/28 00:22:00;;;;;;;;;;;23.50;49.00;;;;;;1485260;39;19936;-72
2021/06/28 00:23:21;;;;;;;;;;;23.40;49.00;;;;;;1486876;40;20054;-71
2021/06/28 00:24:42;;;;;;;;;;;23.40;49.00;;;;;;1485996;40;20268;-72
2021/06/28 00:26:03;;;;;;;;;;;23.40;49.10;;;;;;1486103;40;19932;-71
2021/06/28 00:27:25;;;;;;;;;;;23.40;49.20;;;;;;1484645;40;19936;-72
2021/06/28 00:28:45;;;;;;;;;;;23.40;49.20;;;;;;1485792;40;20243;-72
2021/06/28 00:30:10;;;;;;;;;;;23.40;49.20;;;;;;1486720;40;19947;-72
2021/06/28 00:31:31;;;;;;;;;;;23.30;49.20;;;;;;1486840;39;19943;-71
2021/06/28 00:32:52;;;;;;;;;;;23.30;49.10;;;;;;1485948;39;19932;-72
2021/06/28 00:34:13;;;;;;;;;;;23.30;49.20;;;;;;1486175;40;19936;-71
2021/06/28 00:35:34;;;;;;;;;;;23.30;49.20;;;;;;1481810;40;19936;-67
2021/06/28 00:36:56;;;;;;;;;;;23.30;49.20;;;;;;1483846;40;19973;-68
2021/06/28 00:38:17;;;;;;;;;;;23.30;49.20;;;;;;1486459;40;19938;-68
2021/06/28 00:39:38;;;;;;;;;;;23.30;49.30;;;;;;1487191;40;19979;-68
2021/06/28 00:40:59;;;;;;;;;;;23.30;49.30;;;;;;1486062;40;20025;-67
2021/06/28 00:42:22;;;;;;;;;;;23.20;49.30;;;;;;1486518;39;19976;-68
2021/06/28 00:43:43;;;;;;;;;;;23.20;49.30;;;;;;1487050;40;19936;-67
2021/06/28 00:45:13;;;;;;;;;;;23.20;49.40;;;;;;1485828;40;19940;-67
2021/06/28 00:46:34;;;;;;;;;;;23.20;49.40;;;;;;1487236;40;19939;-68
2021/06/28 00:47:57;;;;;;;;;;;23.20;49.50;;;;;;1486464;40;19940;-67
2021/06/28 00:49:18;;;;;;;;;;;23.10;49.50;;;;;;1487835;40;19936;-67
2021/06/28 00:50:40;;;;;;;;;;;23.10;49.60;;;;;;1485983;39;19940;-68
2021/06/28 00:52:00;;;;;;;;;;;23.10;49.50;;;;;;1486836;39;19986;-67
2021/06/28 00:53:22;;;;;;;;;;;23.10;49.50;;;;;;1487820;39;19943;-68
2021/06/28 00:54:43;;;;;;;;;;;23.10;49.50;;;;;;1487771;40;19993;-68
2021/06/28 00:56:10;;;;;;;;;;;23.10;49.50;;;;;;1485407;40;20041;-68
2021/06/28 00:57:31;;;;;;;;;;;23.10;49.60;;;;;;1487878;40;19936;-68
2021/06/28 00:58:52;;;;;;;;;;;23.10;49.60;;;;;;1487308;40;19939;-68
2021/06/28 01:00:13;;;;;;;;;;;23.10;50.20;;;;;;1486631;40;20208;-69
2021/06/28 01:01:34;;;;;;;;;;;23.10;49.70;;;;;;1486427;40;20022;-68
2021/06/28 01:02:56;;;;;;;;;;;23.00;49.60;;;;;;1488074;39;19940;-68
2021/06/28 01:04:17;;;;;;;;;;;23.10;49.70;;;;;;1487458;39;19939;-68
2021/06/28 01:05:39;;;;;;;;;;;23.00;49.70;;;;;;1484707;40;19989;-68
2021/06/28 01:07:00;;;;;;;;;;;23.00;49.70;;;;;;1487068;40;19942;-67
2021/06/28 01:08:21;;;;;;;;;;;23.00;49.80;;;;;;1486020;40;19932;-67
2021/06/28 01:09:41;;;;;;;;;;;23.00;49.90;;;;;;1488404;40;20784;-67
2021/06/28 01:11:02;;;;;;;;;;;23.00;49.90;;;;;;1487470;40;19939;-67
2021/06/28 01:12:23;;;;;;;;;;;23.00;49.90;;;;;;1487274;40;19947;-67
2021/06/28 01:13:44;;;;;;;;;;;23.00;49.90;;;;;;1485686;40;19957;-67
2021/06/28 01:15:06;;;;;;;;;;;23.00;49.90;;;;;;1488043;40;19932;-67
2021/06/28 01:16:27;;;;;;;;;;;23.00;49.90;;;;;;1486926;40;20327;-68
2021/06/28 01:17:48;;;;;;;;;;;23.00;50.00;;;;;;1486372;40;19932;-68
2021/06/28 01:19:12;;;;;;;;;;;23.00;50.10;;;;;;1487524;40;19948;-67
2021/06/28 01:20:32;;;;;;;;;;;23.00;50.10;;;;;;1484902;40;20201;-67
2021/06/28 01:21:54;;;;;;;;;;;23.00;50.20;;;;;;1487748;39;19936;-68
2021/06/28 01:23:19;;;;;;;;;;;23.00;50.20;;;;;;1485737;39;20253;-67
2021/06/28 01:24:40;;;;;;;;;;;23.00;50.20;;;;;;1488054;40;19992;-68
2021/06/28 01:26:05;;;;;;;;;;;22.90;50.20;;;;;;1485456;40;19943;-68
2021/06/28 01:27:27;;;;;;;;;;;23.00;50.20;;;;;;1486616;40;19971;-68
2021/06/28 01:28:48;;;;;;;;;;;22.90;50.10;;;;;;1486553;40;19942;-68
2021/06/28 01:30:11;;;;;;;;;;;23.00;50.10;;;;;;1486307;40;20045;-68
2021/06/28 01:31:32;;;;;;;;;;;23.00;50.10;;;;;;1485543;40;20181;-68
2021/06/28 01:32:53;;;;;;;;;;;23.00;50.20;;;;;;1488018;40;19932;-68
2021/06/28 01:34:14;;;;;;;;;;;22.90;50.10;;;;;;1485366;40;19955;-68
2021/06/28 01:35:37;;;;;;;;;;;22.90;50.10;;;;;;1487580;40;19990;-68
2021/06/28 01:37:10;;;;;;;;;;;22.90;50.20;;;;;;1486916;40;19936;-67
2021/06/28 01:38:31;;;;;;;;;;;22.90;50.20;;;;;;1485313;40;20125;-67
2021/06/28 01:39:53;;;;;;;;;;;22.90;50.30;;;;;;1487981;40;19962;-68
2021/06/28 01:41:14;;;;;;;;;;;22.80;50.30;;;;;;1486800;40;19932;-67
2021/06/28 01:42:35;;;;;;;;;;;22.90;50.30;;;;;;1486202;40;19937;-68
2021/06/28 01:43:56;;;;;;;;;;;22.90;50.40;;;;;;1485904;40;20371;-67
2021/06/28 01:45:19;;;;;;;;;;;22.80;50.30;;;;;;1488152;40;20161;-67
2021/06/28 01:46:39;;;;;;;;;;;22.80;50.40;;;;;;1486854;40;19940;-67
2021/06/28 01:48:00;;;;;;;;;;;22.80;50.40;;;;;;1486761;40;19956;-67
2021/06/28 01:49:21;;;;;;;;;;;22.80;50.40;;;;;;1486657;40;19932;-67
2021/06/28 01:50:42;;;;;;;;;;;22.80;50.40;;;;;;1486347;39;20136;-67
2021/06/28 01:52:04;;;;;;;;;;;22.80;50.40;;;;;;1487378;40;19938;-67
2021/06/28 01:53:25;;;;;;;;;;;22.80;50.40;;;;;;1487187;39;19936;-67
2021/06/28 01:54:46;;;;;;;;;;;22.80;50.40;;;;;;1486927;39;19951;-68
2021/06/28 01:56:07;;;;;;;;;;;22.80;50.50;;;;;;1487296;39;20335;-68
2021/06/28 01:57:27;;;;;;;;;;;22.80;50.50;;;;;;1487859;39;20178;-68
2021/06/28 01:58:48;;;;;;;;;;;22.80;50.50;;;;;;1482166;40;20264;-67
2021/06/28 02:00:10;;;;;;;;;;;22.80;50.60;;;;;;1483495;40;19947;-67
2021/06/28 02:01:31;;;;;;;;;;;22.80;50.70;;;;;;1487337;40;19944;-68
2021/06/28 02:03:11;;;;;;;;;;;22.80;50.60;;;;;;1485522;40;19984;-68
2021/06/28 02:04:33;;;;;;;;;;;22.80;50.60;;;;;;1487928;40;19936;-68
2021/06/28 02:05:58;;;;;;;;;;;22.80;50.80;;;;;;1486624;40;19932;-68
2021/06/28 02:07:19;;;;;;;;;;;22.80;50.80;;;;;;1486002;40;19940;-68
2021/06/28 02:08:40;;;;;;;;;;;22.80;50.80;;;;;;1485792;40;20177;-67
2021/06/28 02:10:00;;;;;;;;;;;22.80;50.90;;;;;;1486862;40;19948;-68
2021/06/28 02:11:21;;;;;;;;;;;22.80;51.40;;;;;;1487595;40;20244;-68
2021/06/28 02:12:42;;;;;;;;;;;22.80;51.00;;;;;;1487246;40;19937;-67
2021/06/28 02:14:03;;;;;;;;;;;22.80;51.10;;;;;;1486487;40;19936;-68
2021/06/28 02:15:25;;;;;;;;;;;22.80;51.20;;;;;;1486003;40;19941;-68
2021/06/28 02:16:48;;;;;;;;;;;22.80;51.30;;;;;;1486554;40;20033;-68
2021/06/28 02:18:08;;;;;;;;;;;22.80;51.30;;;;;;1485281;39;19932;-68
2021/06/28 02:19:29;;;;;;;;;;;22.80;51.30;;;;;;1486203;40;19943;-68
2021/06/28 02:20:51;;;;;;;;;;;22.80;51.30;;;;;;1486735;40;19939;-68
2021/06/28 02:22:12;;;;;;;;;;;22.80;51.20;;;;;;1485629;40;19936;-67
2021/06/28 02:23:34;;;;;;;;;;;22.80;51.30;;;;;;1486181;40;19932;-67
2021/06/28 02:24:54;;;;;;;;;;;22.80;51.20;;;;;;1487400;40;19932;-68
2021/06/28 02:26:15;;;;;;;;;;;22.80;51.30;;;;;;1485790;40;19940;-68
2021/06/28 02:27:38;;;;;;;;;;;22.80;51.20;;;;;;1486366;40;20266;-67
2021/06/28 02:28:58;;;;;;;;;;;22.80;51.30;;;;;;1485493;40;19932;-67
2021/06/28 02:30:19;;;;;;;;;;;22.80;51.30;;;;;;1485426;40;19933;-67
2021/06/28 02:31:41;;;;;;;;;;;22.80;51.30;;;;;;1486751;40;20024;-67
2021/06/28 02:33:02;;;;;;;;;;;22.80;51.40;;;;;;1486012;40;20025;-67
2021/06/28 02:34:22;;;;;;;;;;;22.80;51.50;;;;;;1485536;40;20021;-67
2021/06/28 02:35:43;;;;;;;;;;;22.80;51.50;;;;;;1486582;40;19950;-68
2021/06/28 02:37:04;;;;;;;;;;;22.80;51.50;;;;;;1485457;39;20010;-68
2021/06/28 02:38:25;;;;;;;;;;;22.80;51.50;;;;;;1486709;40;20265;-68
2021/06/28 02:39:46;;;;;;;;;;;22.80;51.50;;;;;;1485441;40;19940;-68
2021/06/28 02:41:07;;;;;;;;;;;22.70;51.40;;;;;;1486354;40;19942;-68
2021/06/28 02:42:28;;;;;;;;;;;22.70;51.40;;;;;;1486221;40;19931;-68
2021/06/28 02:43:49;;;;;;;;;;;22.70;51.50;;;;;;1488396;40;19943;-68
2021/06/28 02:45:10;;;;;;;;;;;22.70;51.50;;;;;;1486189;40;19954;-67
2021/06/28 02:46:31;;;;;;;;;;;22.70;51.50;;;;;;1485432;40;19937;-68
2021/06/28 02:47:52;;;;;;;;;;;22.70;51.60;;;;;;1486450;40;19972;-68
2021/06/28 02:49:13;;;;;;;;;;;22.70;51.60;;;;;;1486400;40;19944;-67
2021/06/28 02:50:34;;;;;;;;;;;22.70;51.60;;;;;;1485498;40;19936;-68
2021/06/28 02:51:55;;;;;;;;;;;22.70;51.60;;;;;;1486684;39;20016;-67
2021/06/28 02:53:17;;;;;;;;;;;22.70;51.60;;;;;;1486689;40;19938;-67
2021/06/28 02:54:38;;;;;;;;;;;22.70;51.60;;;;;;1487193;40;20000;-68
2021/06/28 02:56:12;;;;;;;;;;;22.70;51.50;;;;;;1485571;40;19955;-68
2021/06/28 02:57:33;;;;;;;;;;;22.70;51.60;;;;;;1486123;40;20242;-67
2021/06/28 02:58:55;;;;;;;;;;;22.70;51.60;;;;;;1487597;40;19943;-67
2021/06/28 03:00:17;;;;;;;;;;;22.70;51.60;;;;;;1485815;40;19932;-68
2021/06/28 03:01:38;;;;;;;;;;;22.70;51.60;;;;;;1485864;40;20210;-67
2021/06/28 03:02:59;;;;;;;;;;;22.70;51.60;;;;;;1481855;40;19976;-67
2021/06/28 03:04:19;;;;;;;;;;;22.60;51.70;;;;;;1484641;40;20190;-68
2021/06/28 03:05:40;;;;;;;;;;;22.50;51.60;;;;;;1486652;40;20046;-68
2021/06/28 03:07:01;;;;;;;;;;;22.60;51.70;;;;;;1486253;40;19964;-67
2021/06/28 03:08:22;;;;;;;;;;;22.60;51.70;;;;;;1487230;40;19932;-68
2021/06/28 03:09:43;;;;;;;;;;;22.60;51.70;;;;;;1485676;40;19964;-68
2021/06/28 03:11:04;;;;;;;;;;;22.60;51.70;;;;;;1487848;39;19932;-67
2021/06/28 03:12:25;;;;;;;;;;;22.60;51.70;;;;;;1487214;39;19936;-68
2021/06/28 03:13:47;;;;;;;;;;;22.60;51.70;;;;;;1485961;40;20530;-68
2021/06/28 03:15:12;;;;;;;;;;;22.60;51.70;;;;;;1487420;40;19939;-68
2021/06/28 03:16:32;;;;;;;;;;;22.60;51.80;;;;;;1486523;40;20025;-67
2021/06/28 03:17:53;;;;;;;;;;;22.60;51.80;;;;;;1487098;40;20237;-68
2021/06/28 03:19:14;;;;;;;;;;;22.50;51.80;;;;;;1487299;40;19988;-67
2021/06/28 03:20:35;;;;;;;;;;;22.50;51.80;;;;;;1485699;40;19936;-67
2021/06/28 03:21:56;;;;;;;;;;;22.60;51.90;;;;;;1487979;40;19943;-68
2021/06/28 03:23:17;;;;;;;;;;;22.50;51.80;;;;;;1486821;40;19969;-68
2021/06/28 03:24:37;;;;;;;;;;;22.50;51.80;;;;;;1487366;40;19962;-67
2021/06/28 03:25:58;;;;;;;;;;;22.50;51.80;;;;;;1485206;40;20524;-67
2021/06/28 03:27:19;;;;;;;;;;;22.50;51.90;;;;;;1486150;40;19938;-67
2021/06/28 03:28:40;;;;;;;;;;;22.50;51.90;;;;;;1486684;40;19994;-67
2021/06/28 03:30:02;;;;;;;;;;;22.50;51.90;;;;;;1485057;39;20564;-67
2021/06/28 03:31:22;;;;;;;;;;;22.50;52.00;;;;;;1487279;39;20185;-67
2021/06/28 03:32:44;;;;;;;;;;;22.50;52.00;;;;;;1487441;40;20051;-67
2021/06/28 03:34:04;;;;;;;;;;;22.40;52.00;;;;;;1487341;40;20329;-68
2021/06/28 03:35:25;;;;;;;;;;;22.40;52.00;;;;;;1486190;40;19944;-67
2021/06/28 03:36:46;;;;;;;;;;;22.40;52.00;;;;;;1487237;40;19947;-68
2021/06/28 03:38:07;;;;;;;;;;;22.40;52.00;;;;;;1486346;40;20144;-67
2021/06/28 03:39:28;;;;;;;;;;;22.40;52.00;;;;;;1486734;40;20219;-68
2021/06/28 03:40:48;;;;;;;;;;;22.40;52.00;;;;;;1487538;40;19939;-67
2021/06/28 03:42:09;;;;;;;;;;;22.40;52.00;;;;;;1487115;40;19932;-68
2021/06/28 03:43:30;;;;;;;;;;;22.40;52.10;;;;;;1486837;40;19972;-68
2021/06/28 03:44:51;;;;;;;;;;;22.40;52.10;;;;;;1485764;40;20288;-67
2021/06/28 03:46:12;;;;;;;;;;;22.40;52.10;;;;;;1485944;40;20030;-68
2021/06/28 03:47:32;;;;;;;;;;;22.40;52.10;;;;;;1486848;40;20517;-67
2021/06/28 03:48:53;;;;;;;;;;;22.40;52.10;;;;;;1486161;40;20341;-67
2021/06/28 03:50:14;;;;;;;;;;;22.40;52.20;;;;;;1486411;40;19947;-67
2021/06/28 03:51:35;;;;;;;;;;;22.40;52.10;;;;;;1485830;40;19943;-68
2021/06/28 03:52:57;;;;;;;;;;;22.40;52.70;;;;;;1485836;40;20342;-67
2021/06/28 03:54:18;;;;;;;;;;;22.40;52.20;;;;;;1486740;40;20421;-67
2021/06/28 03:55:38;;;;;;;;;;;22.40;52.20;;;;;;1485773;40;19932;-67
2021/06/28 03:57:00;;;;;;;;;;;22.40;52.20;;;;;;1486070;40;19940;-67
2021/06/28 03:58:21;;;;;;;;;;;22.40;52.20;;;;;;1485888;40;19936;-68
2021/06/28 03:59:42;;;;;;;;;;;22.40;52.30;;;;;;1487558;40;20013;-67
2021/06/28 04:01:03;;;;;;;;;;;22.40;52.30;;;;;;1486197;40;19981;-67
2021/06/28 04:02:24;;;;;;;;;;;22.40;52.30;;;;;;1484621;40;19988;-67
2021/06/28 04:03:45;;;;;;;;;;;22.30;52.30;;;;;;1487179;40;19932;-67
2021/06/28 04:05:06;;;;;;;;;;;22.40;52.40;;;;;;1487045;40;20184;-67
2021/06/28 04:06:27;;;;;;;;;;;22.40;52.40;;;;;;1487116;39;19983;-67
2021/06/28 04:07:48;;;;;;;;;;;22.40;52.40;;;;;;1486301;40;19944;-68
2021/06/28 04:09:09;;;;;;;;;;;22.40;52.50;;;;;;1486734;40;20269;-67
2021/06/28 04:10:30;;;;;;;;;;;22.40;52.50;;;;;;1486330;40;19932;-67
2021/06/28 04:11:51;;;;;;;;;;;22.40;52.50;;;;;;1486197;40;20331;-67
2021/06/28 04:13:11;;;;;;;;;;;22.40;52.50;;;;;;1487194;40;19936;-68
2021/06/28 04:14:32;;;;;;;;;;;22.40;53.10;;;;;;1487046;40;19943;-68
2021/06/28 04:15:53;;;;;;;;;;;22.40;52.50;;;;;;1487783;39;19992;-68
2021/06/28 04:17:14;;;;;;;;;;;22.40;52.60;;;;;;1486687;39;19940;-68
2021/06/28 04:18:35;;;;;;;;;;;22.40;52.60;;;;;;1488647;40;20032;-67
2021/06/28 04:19:56;;;;;;;;;;;22.40;52.60;;;;;;1487364;40;19943;-67
2021/06/28 04:21:17;;;;;;;;;;;22.40;52.60;;;;;;1485645;40;19936;-67
2021/06/28 04:22:38;;;;;;;;;;;22.40;52.60;;;;;;1486754;40;20039;-67
2021/06/28 04:24:03;;;;;;;;;;;22.40;52.70;;;;;;1485164;40;19951;-67
2021/06/28 04:25:24;;;;;;;;;;;22.40;52.70;;;;;;1486198;40;20176;-67
2021/06/28 04:26:45;;;;;;;;;;;22.40;52.70;;;;;;1487217;40;20145;-68
2021/06/28 04:28:06;;;;;;;;;;;22.40;52.70;;;;;;1486356;40;19943;-67
2021/06/28 04:29:27;;;;;;;;;;;22.40;52.80;;;;;;1486963;40;20432;-68
2021/06/28 04:30:48;;;;;;;;;;;22.40;52.80;;;;;;1487972;40;20275;-68
2021/06/28 04:32:09;;;;;;;;;;;22.30;52.80;;;;;;1485237;40;19944;-68
2021/06/28 04:33:29;;;;;;;;;;;22.40;52.90;;;;;;1486007;40;19944;-67
2021/06/28 04:34:50;;;;;;;;;;;22.40;52.90;;;;;;1486116;39;19932;-68
2021/06/28 04:36:12;;;;;;;;;;;22.40;52.90;;;;;;1485248;39;19940;-67
2021/06/28 04:37:32;;;;;;;;;;;22.40;53.00;;;;;;1487989;40;19944;-68
2021/06/28 04:38:53;;;;;;;;;;;22.40;53.00;;;;;;1485936;40;19959;-67
2021/06/28 04:40:15;;;;;;;;;;;22.40;53.00;;;;;;1487235;39;19995;-68
2021/06/28 04:41:36;;;;;;;;;;;22.40;53.00;;;;;;1485576;40;19944;-68
2021/06/28 04:42:57;;;;;;;;;;;22.40;53.00;;;;;;1486374;40;20305;-68
2021/06/28 04:44:18;;;;;;;;;;;22.40;53.00;;;;;;1485292;40;19936;-67
2021/06/28 04:45:39;;;;;;;;;;;22.40;53.20;;;;;;1487378;40;20027;-68
2021/06/28 04:47:00;;;;;;;;;;;22.40;53.20;;;;;;1485483;40;19948;-68
2021/06/28 04:48:20;;;;;;;;;;;22.50;53.20;;;;;;1487558;40;19948;-68
2021/06/28 04:49:41;;;;;;;;;;;22.40;53.70;;;;;;1485786;40;19932;-68
2021/06/28 04:51:02;;;;;;;;;;;22.50;53.30;;;;;;1486586;40;19945;-67
2021/06/28 04:52:23;;;;;;;;;;;22.50;53.30;;;;;;1486227;39;20377;-67
2021/06/28 04:53:44;;;;;;;;;;;22.50;53.30;;;;;;1486565;39;20018;-68
2021/06/28 04:55:05;;;;;;;;;;;22.50;53.30;;;;;;1487676;39;19994;-67
2021/06/28 04:56:26;;;;;;;;;;;22.50;53.40;;;;;;1486957;39;19947;-68
2021/06/28 04:57:47;;;;;;;;;;;22.50;53.40;;;;;;1486399;40;19941;-67
2021/06/28 04:59:08;;;;;;;;;;;22.50;53.40;;;;;;1487614;39;19961;-67
2021/06/28 05:00:29;;;;;;;;;;;22.50;53.40;;;;;;1487912;40;20037;-68
2021/06/28 05:01:50;;;;;;;;;;;22.50;53.40;;;;;;1487382;40;19950;-67
2021/06/28 05:03:10;;;;;;;;;;;22.60;53.50;;;;;;1487777;40;20234;-68
2021/06/28 05:04:31;;;;;;;;;;;22.50;53.50;;;;;;1487726;40;20322;-68
2021/06/28 05:05:52;;;;;;;;;;;22.60;53.50;;;;;;1485589;40;19984;-68
2021/06/28 05:07:14;;;;;;;;;;;22.50;53.50;;;;;;1483243;40;20037;-67
2021/06/28 05:08:35;;;;;;;;;;;22.60;53.50;;;;;;1485052;40;19979;-67
2021/06/28 05:09:56;;;;;;;;;;;22.60;53.50;;;;;;1485507;40;19936;-68
2021/06/28 05:11:17;;;;;;;;;;;22.60;53.60;;;;;;1484088;40;20019;-67
2021/06/28 05:12:38;;;;;;;;;;;22.60;53.60;;;;;;1487830;40;20156;-68
2021/06/28 05:13:59;;;;;;;;;;;22.60;53.60;;;;;;1483480;40;19948;-67
2021/06/28 05:15:19;;;;;;;;;;;22.60;53.60;;;;;;1485860;40;20256;-68
2021/06/28 05:16:40;;;;;;;;;;;22.70;53.70;;;;;;1488506;39;19947;-68
2021/06/28 05:18:01;;;;;;;;;;;22.80;53.80;;;;;;1483308;40;19967;-68
2021/06/28 05:19:22;;;;;;;;;;;22.70;53.80;;;;;;1486264;39;19939;-67
2021/06/28 05:20:43;;;;;;;;;;;22.70;53.80;;;;;;1487612;40;19950;-67
2021/06/28 05:22:03;;;;;;;;;;;22.70;53.90;;;;;;1485752;40;19936;-67
2021/06/28 05:23:24;;;;;;;;;;;22.70;53.80;;;;;;1487449;40;19942;-67
2021/06/28 05:24:45;;;;;;;;;;;22.70;53.90;;;;;;1487572;40;19940;-68
2021/06/28 05:26:06;;;;;;;;;;;22.70;53.90;;;;;;1487090;40;19943;-68
2021/06/28 05:27:27;;;;;;;;;;;22.70;53.90;;;;;;1487057;40;20385;-67
2021/06/28 05:28:48;;;;;;;;;;;22.80;54.00;;;;;;1486840;40;19943;-67
2021/06/28 05:30:10;;;;;;;;;;;22.80;54.10;;;;;;1487267;40;19944;-67
2021/06/28 05:31:31;;;;;;;;;;;22.80;54.10;;;;;;1486856;40;19939;-68
2021/06/28 05:32:52;;;;;;;;;;;22.80;54.20;;;;;;1484969;40;19982;-68
2021/06/28 05:34:13;;;;;;;;;;;22.80;54.20;;;;;;1487321;40;20374;-68
2021/06/28 05:35:34;;;;;;;;;;;22.80;54.20;;;;;;1481930;40;19963;-67
2021/06/28 05:36:54;;;;;;;;;;;22.80;54.10;;;;;;1486346;39;19938;-68
2021/06/28 05:38:15;;;;;;;;;;;22.90;54.20;;;;;;1485764;40;19988;-68
2021/06/28 05:39:36;;;;;;;;;;;22.90;54.20;;;;;;1486697;40;19939;-69
2021/06/28 05:40:57;;;;;;;;;;;22.90;54.20;;;;;;1485931;40;19933;-68
2021/06/28 05:42:18;;;;;;;;;;;22.90;54.20;;;;;;1486554;40;19932;-68
2021/06/28 05:43:38;;;;;;;;;;;23.00;54.20;;;;;;1485644;40;19932;-68
2021/06/28 05:44:59;;;;;;;;;;;23.00;54.20;;;;;;1487096;40;20166;-68
2021/06/28 05:46:20;;;;;;;;;;;23.00;54.20;;;;;;1485826;40;19948;-68
2021/06/28 05:47:41;;;;;;;;;;;23.00;54.30;;;;;;1484976;40;19983;-67
2021/06/28 05:49:02;;;;;;;;;;;23.00;54.30;;;;;;1486636;40;19980;-68
2021/06/28 05:50:24;;;;;;;;;;;23.10;54.30;;;;;;1486952;40;19939;-67
2021/06/28 05:51:45;;;;;;;;;;;23.10;54.50;;;;;;1486908;40;19964;-67
2021/06/28 05:53:06;;;;;;;;;;;23.10;54.50;;;;;;1486638;40;19940;-67
2021/06/28 05:54:27;;;;;;;;;;;23.10;54.50;;;;;;1485868;40;19940;-67
2021/06/28 05:55:48;;;;;;;;;;;23.10;54.50;;;;;;1486202;40;19983;-67
2021/06/28 05:57:09;;;;;;;;;;;23.10;54.50;;;;;;1486237;39;20324;-67
2021/06/28 05:58:30;;;;;;;;;;;23.20;54.50;;;;;;1485322;39;19944;-67
2021/06/28 05:59:51;;;;;;;;;;;23.20;54.50;;;;;;1486778;40;19936;-67
2021/06/28 06:01:13;;;;;;;;;;;23.20;54.50;;;;;;1485826;40;20212;-67
2021/06/28 06:02:36;;;;;;;;;;;23.20;54.50;;;;;;1485050;40;20457;-68
2021/06/28 06:03:57;;;;;;;;;;;23.30;54.50;;;;;;1486944;40;19936;-68
2021/06/28 06:05:18;;;;;;;;;;;23.30;54.50;;;;;;1487128;40;19952;-68
2021/06/28 06:06:39;;;;;;;;;;;23.30;54.60;;;;;;1487194;40;20439;-68
2021/06/28 06:07:59;;;;;;;;;;;23.30;54.60;;;;;;1485947;40;19936;-68
2021/06/28 06:09:20;;;;;;;;;;;23.40;54.60;;;;;;1485355;40;19943;-68
2021/06/28 06:10:41;;;;;;;;;;;23.40;54.60;;;;;;1486262;40;20265;-68
2021/06/28 06:12:02;;;;;;;;;;;23.40;54.60;;;;;;1486629;40;20456;-68
2021/06/28 06:13:23;;;;;;;;;;;23.40;54.60;;;;;;1487136;40;20018;-68
2021/06/28 06:14:44;;;;;;;;;;;23.50;54.80;;;;;;1484585;40;19963;-68
2021/06/28 06:16:05;;;;;;;;;;;23.50;54.80;;;;;;1486288;39;19944;-68
2021/06/28 06:17:26;;;;;;;;;;;23.50;54.80;;;;;;1487853;40;19935;-68
2021/06/28 06:18:47;;;;;;;;;;;23.60;54.90;;;;;;1484990;40;20030;-68
2021/06/28 06:20:08;;;;;;;;;;;23.60;54.90;;;;;;1485132;40;19943;-66
2021/06/28 06:21:29;;;;;;;;;;;23.60;54.90;;;;;;1487770;40;19932;-68
2021/06/28 06:22:50;;;;;;;;;;;23.70;55.00;;;;;;1485387;40;19956;-68
2021/06/28 06:24:10;;;;;;;;;;;23.70;55.10;;;;;;1486668;40;19968;-68
2021/06/28 06:25:32;;;;;;;;;;;23.70;55.10;;;;;;1486676;39;19944;-66
2021/06/28 06:26:53;;;;;;;;;;;23.80;55.20;;;;;;1485729;40;19944;-68
2021/06/28 06:28:13;;;;;;;;;;;23.90;55.30;;;;;;1487940;40;19968;-68
2021/06/28 06:29:35;;;;;;;;;;;23.90;55.30;;;;;;1487506;40;19936;-68
2021/06/28 06:30:56;;;;;;;;;;;23.90;55.20;;;;;;1488031;39;20086;-68
2021/06/28 06:32:16;;;;;;;;;;;24.00;55.30;;;;;;1487718;40;19943;-68
2021/06/28 06:33:39;;;;;;;;;;;24.00;55.20;;;;;;1488027;40;20021;-68
2021/06/28 06:35:00;;;;;;;;;;;24.10;55.20;;;;;;1486456;40;19946;-69
2021/06/28 06:36:21;;;;;;;;;;;24.10;55.20;;;;;;1481409;40;20615;-69
2021/06/28 06:37:42;;;;;;;;;;;24.10;55.10;;;;;;1487512;39;20327;-68
2021/06/28 06:39:03;;;;;;;;;;;24.20;55.20;;;;;;1485374;40;20314;-68
2021/06/28 06:40:24;;;;;;;;;;;24.30;55.20;;;;;;1487163;40;20211;-68
2021/06/28 06:41:46;;;;;;;;;;;24.20;55.10;;;;;;1487445;40;20227;-69
2021/06/28 06:43:06;;;;;;;;;;;24.30;55.10;;;;;;1488382;40;19931;-68
2021/06/28 06:44:27;;;;;;;;;;;24.30;55.00;;;;;;1485866;40;20026;-68
2021/06/28 06:45:48;;;;;;;;;;;24.30;55.00;;;;;;1488521;40;19940;-68
2021/06/28 06:47:09;;;;;;;;;;;24.40;55.00;;;;;;1487526;40;20235;-68
2021/06/28 06:48:30;;;;;;;;;;;24.40;55.00;;;;;;1486289;40;19986;-69
2021/06/28 06:49:51;;;;;;;;;;;24.50;55.00;;;;;;1486461;40;19940;-68
2021/06/28 06:51:11;;;;;;;;;;;24.50;55.00;;;;;;1486736;40;19942;-69
2021/06/28 06:52:32;;;;;;;;;;;24.50;54.90;;;;;;1488193;40;19979;-68
2021/06/28 06:53:53;;;;;;;;;;;24.50;55.40;;;;;;1486900;40;19936;-68
2021/06/28 06:55:14;;;;;;;;;;;24.50;55.30;;;;;;1487397;39;19939;-68
2021/06/28 06:56:35;;;;;;;;;;;24.50;54.80;;;;;;1485483;40;19940;-68
2021/06/28 06:57:56;;;;;;;;;;;24.60;54.80;;;;;;1484713;40;19943;-68
2021/06/28 06:59:17;;;;;;;;;;;24.60;54.70;;;;;;1486342;40;19955;-68
2021/06/28 07:00:39;;;;;;;;;;;24.60;54.70;;;;;;1482782;40;19951;-68
2021/06/28 07:02:00;;;;;;;;;;;24.60;54.60;;;;;;1485199;39;19948;-69
2021/06/28 07:03:21;;;;;;;;;;;24.60;54.60;;;;;;1486696;39;19939;-68
2021/06/28 07:04:42;;;;;;;;;;;24.60;54.60;;;;;;1487624;40;20025;-68
2021/06/28 07:06:02;;;;;;;;;;;24.60;54.60;;;;;;1486102;40;19936;-69
2021/06/28 07:07:23;;;;;;;;;;;24.60;54.60;;;;;;1486973;40;20004;-68
2021/06/28 07:08:44;;;;;;;;;;;24.60;54.70;;;;;;1487842;40;19980;-68
2021/06/28 07:10:05;;;;;;;;;;;24.60;54.70;;;;;;1487177;40;19935;-68
2021/06/28 07:11:26;;;;;;;;;;;24.70;54.70;;;;;;1482108;40;19939;-68
2021/06/28 07:12:47;;;;;;;;;;;24.70;54.80;;;;;;1485523;40;19940;-68
2021/06/28 07:14:08;;;;;;;;;;;24.70;54.80;;;;;;1486325;39;20204;-69
2021/06/28 07:15:29;;;;;;;;;;;24.70;54.80;;;;;;1486427;39;20392;-68
2021/06/28 07:16:50;;;;;;;;;;;24.80;54.80;;;;;;1484352;39;20049;-68
2021/06/28 07:18:11;;;;;;;;;;;24.80;54.80;;;;;;1486459;40;19939;-66
2021/06/28 07:19:31;;;;;;;;;;;24.80;54.80;;;;;;1486313;40;19967;-69
2021/06/28 07:20:52;;;;;;;;;;;24.80;54.90;;;;;;1487527;40;19968;-68
2021/06/28 07:22:13;;;;;;;;;;;24.80;54.90;;;;;;1486025;40;19944;-68
2021/06/28 07:23:34;;;;;;;;;;;24.90;55.00;;;;;;1487385;40;20158;-68
2021/06/28 07:24:55;;;;;;;;;;;24.90;55.00;;;;;;1488011;40;19958;-68
2021/06/28 07:26:15;;;;;;;;;;;25.00;55.20;;;;;;1486848;40;19943;-69
2021/06/28 07:27:37;;;;;;;;;;;25.00;55.20;;;;;;1488024;40;19991;-68
2021/06/28 07:28:57;;;;;;;;;;;25.00;55.30;;;;;;1488548;40;19952;-68
2021/06/28 07:30:20;;;;;;;;;;;25.10;55.70;;;;;;1486575;40;19952;-69
2021/06/28 07:31:40;;;;;;;;;;;25.10;56.30;;;;;;1486367;40;19947;-68
2021/06/28 07:33:01;;;;;;;;;;;25.10;55.40;;;;;;1486150;40;19940;-68
2021/06/28 07:34:22;;;;;;;;;;;25.10;55.40;;;;;;1487905;39;19936;-68
2021/06/28 07:35:43;;;;;;;;;;;25.20;55.30;;;;;;1487388;39;19944;-69
2021/06/28 07:37:04;;;;;;;;;;;25.20;55.10;;;;;;1486508;40;19940;-68
2021/06/28 07:38:25;;;;;;;;;;;25.20;55.10;;;;;;1485163;40;20276;-68
2021/06/28 07:39:46;;;;;;;;;;;25.30;55.20;;;;;;1487272;40;20029;-68
2021/06/28 07:41:07;;;;;;;;;;;25.30;55.20;;;;;;1487509;40;20166;-68
2021/06/28 07:42:28;;;;;;;;;;;25.30;55.20;;;;;;1486194;40;19955;-68
2021/06/28 07:43:49;;;;;;;;;;;25.30;55.10;;;;;;1486962;40;19999;-68
2021/06/28 07:45:10;;;;;;;;;;;25.40;55.10;;;;;;1486772;40;19940;-68
2021/06/28 07:46:31;;;;;;;;;;;25.40;55.10;;;;;;1486421;40;19936;-67
2021/06/28 07:47:52;;;;;;;;;;;25.40;55.20;;;;;;1486473;40;19933;-68
2021/06/28 07:49:13;;;;;;;;;;;25.50;55.30;;;;;;1486048;40;20040;-68
2021/06/28 07:50:34;;;;;;;;;;;25.50;55.30;;;;;;1487116;40;20015;-68
2021/06/28 07:51:55;;;;;;;;;;;25.60;55.20;;;;;;1486966;40;20030;-68